sensor_id;sensor_type;location;lat;lon;timestamp;temperature;humidity
6627;DHT22;3349;49.830;8.748;2023-07-29T00:01:17;17.80;99.90
6627;DHT22;3349;49.830;8.748;2023-07-29T00:03:43;17.90;99.90
6627;DHT22;3349;49.830;8.748;2023-07-29T00:06:10;17.90;99.90
6627;DHT22;3349;49.830;8.748;2023-07-29T00:08:37;17.90;99.90
6627;DHT22;3349;49.830;8.748;2023-07-29T00:11:05;17.90;99.90
6627;DHT22;3349;49.830;8.748;2023-07-29T00:13:32;17.90;99.90
6627;DHT22;3349;49.830;8.748;2023-07-29T00:15:58;18.00;99.90
6627;DHT22;3349;49.830;8.748;2023-07-29T00:18:25;18.00;99.90
6627;DHT22;3349;49.830;8.748;2023-07-29T00:20:53;18.00;99.90
6627;DHT22;3349;49.830;8.748;2023-07-29T00:23:19;18.10;99.90
6627;DHT22;3349;49.830;8.748;2023-07-29T00:25:47;18.10;99.90
6627;DHT22;3349;49.830;8.748;2023-07-29T00:28:15;18.10;99.90
6627;DHT22;3349;49.830;8.748;2023-07-29T00:30:41;18.10;99.90
6627;DHT22;3349;49.830;8.748;2023-07-29T00:33:08;18.10;99.90
6627;DHT22;3349;49.830;8.748;2023-07-29T00:35:35;18.10;99.90
6627;DHT22;3349;49.830;8.748;2023-07-29T00:38:02;18.00;99.90
6627;DHT22;3349;49.830;8.748;2023-07-29T00:40:29;18.10;99.90
6627;DHT22;3349;49.830;8.748;2023-07-29T00:42:56;18.10;99.90
6627;DHT22;3349;49.830;8.748;2023-07-29T00:45:25;18.00;99.90
6627;DHT22;3349;49.830;8.748;2023-07-29T00:47:53;18.00;99.90
6627;DHT22;3349;49.830;8.748;2023-07-29T00:50:20;18.00;99.90
6627;DHT22;3349;49.830;8.748;2023-07-29T00:52:48;18.10;99.90
6627;DHT22;3349;49.830;8.748;2023-07-29T00:55:16;18.10;99.90
6627;DHT22;3349;49.830;8.748;2023-07-29T00:57:43;18.10;99.90
6627;DHT22;3349;49.830;8.748;2023-07-29T01:00:14;18.20;99.90
6627;DHT22;3349;49.830;8.748;2023-07-29T01:02:42;18.10;99.90
6627;DHT22;3349;49.830;8.748;2023-07-29T01:05:11;18.10;99.90
6627;DHT22;3349;49.830;8.748;2023-07-29T01:07:44;18.10;99.90
6627;DHT22;3349;49.830;8.748;2023-07-29T01:10:22;18.10;99.90
6627;DHT22;3349;49.830;8.748;2023-07-29T01:12:58;18.10;99.90
6627;DHT22;3349;49.830;8.748;2023-07-29T01:15:31;18.20;99.90
6627;DHT22;3349;49.830;8.748;2023-07-29T01:18:05;18.30;99.90
6627;DHT22;3349;49.830;8.748;2023-07-29T01:20:34;18.30;99.90
6627;DHT22;3349;49.830;8.748;2023-07-29T01:23:03;18.40;99.90
6627;DHT22;3349;49.830;8.748;2023-07-29T01:25:31;18.40;99.90
6627;DHT22;3349;49.830;8.748;2023-07-29T01:27:58;18.40;99.90
6627;DHT22;3349;49.830;8.748;2023-07-29T01:30:30;18.40;99.90
6627;DHT22;3349;49.830;8.748;2023-07-29T01:33:01;18.40;99.90
6627;DHT22;3349;49.830;8.748;2023-07-29T01:35:34;18.40;99.90
6627;DHT22;3349;49.830;8.748;2023-07-29T01:38:04;18.50;99.90
6627;DHT22;3349;49.830;8.748;2023-07-29T01:40:33;18.50;99.90
6627;DHT22;3349;49.830;8.748;2023-07-29T01:43:00;18.60;99.90
6627;DHT22;3349;49.830;8.748;2023-07-29T01:45:28;18.60;99.90
6627;DHT22;3349;49.830;8.748;2023-07-29T01:47:57;18.50;99.90
6627;DHT22;3349;49.830;8.748;2023-07-29T01:50:23;18.50;99.90
6627;DHT22;3349;49.830;8.748;2023-07-29T01:52:50;18.50;99.90
6627;DHT22;3349;49.830;8.748;2023-07-29T01:55:17;18.50;99.90
6627;DHT22;3349;49.830;8.748;2023-07-29T01:57:46;18.50;99.90
6627;DHT22;3349;49.830;8.748;2023-07-29T02:00:13;18.40;99.90
6627;DHT22;3349;49.830;8.748;2023-07-29T02:02:40;18.40;99.90
6627;DHT22;3349;49.830;8.748;2023-07-29T02:05:07;18.50;99.90
6627;DHT22;3349;49.830;8.748;2023-07-29T02:07:34;18.60;99.90
6627;DHT22;3349;49.830;8.748;2023-07-29T02:10:00;18.60;99.90
6627;DHT22;3349;49.830;8.748;2023-07-29T02:12:27;18.60;99.90
6627;DHT22;3349;49.830;8.748;2023-07-29T02:14:55;18.70;99.90
6627;DHT22;3349;49.830;8.748;2023-07-29T02:17:22;18.70;99.90
6627;DHT22;3349;49.830;8.748;2023-07-29T02:19:49;18.80;99.90
6627;DHT22;3349;49.830;8.748;2023-07-29T02:22:16;18.80;99.90
6627;DHT22;3349;49.830;8.748;2023-07-29T02:24:44;18.80;99.90
6627;DHT22;3349;49.830;8.748;2023-07-29T02:27:10;18.80;99.90
6627;DHT22;3349;49.830;8.748;2023-07-29T02:29:37;18.80;99.90
6627;DHT22;3349;49.830;8.748;2023-07-29T02:32:05;18.80;99.90
6627;DHT22;3349;49.830;8.748;2023-07-29T02:34:32;18.80;99.90
6627;DHT22;3349;49.830;8.748;2023-07-29T02:36:59;18.80;99.90
6627;DHT22;3349;49.830;8.748;2023-07-29T02:39:25;18.80;99.90
6627;DHT22;3349;49.830;8.748;2023-07-29T02:41:52;18.80;99.90
6627;DHT22;3349;49.830;8.748;2023-07-29T02:44:20;18.80;99.90
6627;DHT22;3349;49.830;8.748;2023-07-29T02:46:47;18.80;99.90
6627;DHT22;3349;49.830;8.748;2023-07-29T02:49:15;18.80;99.90
6627;DHT22;3349;49.830;8.748;2023-07-29T02:51:42;18.80;99.90
6627;DHT22;3349;49.830;8.748;2023-07-29T02:54:08;18.80;99.90
6627;DHT22;3349;49.830;8.748;2023-07-29T02:56:35;18.70;99.90
6627;DHT22;3349;49.830;8.748;2023-07-29T02:59:02;18.70;99.90
6627;DHT22;3349;49.830;8.748;2023-07-29T03:01:29;18.70;99.90
6627;DHT22;3349;49.830;8.748;2023-07-29T03:03:55;18.70;99.90
6627;DHT22;3349;49.830;8.748;2023-07-29T03:06:23;18.70;99.90
6627;DHT22;3349;49.830;8.748;2023-07-29T03:08:50;18.70;99.90
6627;DHT22;3349;49.830;8.748;2023-07-29T03:11:17;18.70;99.90
6627;DHT22;3349;49.830;8.748;2023-07-29T03:13:44;18.70;99.90
6627;DHT22;3349;49.830;8.748;2023-07-29T03:16:11;18.80;99.90
6627;DHT22;3349;49.830;8.748;2023-07-29T03:18:39;18.80;99.90
6627;DHT22;3349;49.830;8.748;2023-07-29T03:21:06;18.80;99.90
6627;DHT22;3349;49.830;8.748;2023-07-29T03:23:34;18.80;99.90
6627;DHT22;3349;49.830;8.748;2023-07-29T03:26:02;18.80;99.90
6627;DHT22;3349;49.830;8.748;2023-07-29T03:28:35;18.80;99.90
6627;DHT22;3349;49.830;8.748;2023-07-29T03:31:02;18.80;99.90
6627;DHT22;3349;49.830;8.748;2023-07-29T03:33:29;18.80;99.90
6627;DHT22;3349;49.830;8.748;2023-07-29T03:35:56;18.70;99.90
6627;DHT22;3349;49.830;8.748;2023-07-29T03:38:22;18.70;99.90
6627;DHT22;3349;49.830;8.748;2023-07-29T03:40:51;18.70;99.90
6627;DHT22;3349;49.830;8.748;2023-07-29T03:43:18;18.70;99.90
6627;DHT22;3349;49.830;8.748;2023-07-29T03:45:45;18.70;99.90
6627;DHT22;3349;49.830;8.748;2023-07-29T03:48:12;18.70;99.90
6627;DHT22;3349;49.830;8.748;2023-07-29T03:50:39;18.60;99.90
6627;DHT22;3349;49.830;8.748;2023-07-29T03:53:05;18.50;99.90
6627;DHT22;3349;49.830;8.748;2023-07-29T03:55:32;18.50;99.90
6627;DHT22;3349;49.830;8.748;2023-07-29T03:58:00;18.50;99.90
6627;DHT22;3349;49.830;8.748;2023-07-29T04:00:27;18.50;99.90
6627;DHT22;3349;49.830;8.748;2023-07-29T04:02:54;18.50;99.90
6627;DHT22;3349;49.830;8.748;2023-07-29T04:05:20;18.40;99.90
6627;DHT22;3349;49.830;8.748;2023-07-29T04:07:47;18.40;99.90
6627;DHT22;3349;49.830;8.748;2023-07-29T04:10:14;18.50;99.90
6627;DHT22;3349;49.830;8.748;2023-07-29T04:12:41;18.50;99.90
6627;DHT22;3349;49.830;8.748;2023-07-29T04:15:09;18.50;99.90
6627;DHT22;3349;49.830;8.748;2023-07-29T04:17:36;18.50;99.90
6627;DHT22;3349;49.830;8.748;2023-07-29T04:20:03;18.50;99.90
6627;DHT22;3349;49.830;8.748;2023-07-29T04:22:30;18.60;99.90
6627;DHT22;3349;49.830;8.748;2023-07-29T04:24:57;18.70;99.90
6627;DHT22;3349;49.830;8.748;2023-07-29T04:27:23;18.70;99.90
6627;DHT22;3349;49.830;8.748;2023-07-29T04:29:50;18.80;99.90
6627;DHT22;3349;49.830;8.748;2023-07-29T04:32:18;18.80;99.90
6627;DHT22;3349;49.830;8.748;2023-07-29T04:34:45;18.80;99.90
6627;DHT22;3349;49.830;8.748;2023-07-29T04:37:12;18.80;99.90
6627;DHT22;3349;49.830;8.748;2023-07-29T04:39:39;18.90;99.90
6627;DHT22;3349;49.830;8.748;2023-07-29T04:42:06;18.90;99.90
6627;DHT22;3349;49.830;8.748;2023-07-29T04:44:32;18.90;99.90
6627;DHT22;3349;49.830;8.748;2023-07-29T04:46:59;18.90;99.90
6627;DHT22;3349;49.830;8.748;2023-07-29T04:49:27;18.90;99.90
6627;DHT22;3349;49.830;8.748;2023-07-29T04:51:54;19.00;99.90
6627;DHT22;3349;49.830;8.748;2023-07-29T04:54:20;19.00;99.90
6627;DHT22;3349;49.830;8.748;2023-07-29T04:56:47;19.00;99.90
6627;DHT22;3349;49.830;8.748;2023-07-29T04:59:14;19.10;99.90
6627;DHT22;3349;49.830;8.748;2023-07-29T05:01:41;19.10;99.90
6627;DHT22;3349;49.830;8.748;2023-07-29T05:04:08;19.10;99.90
6627;DHT22;3349;49.830;8.748;2023-07-29T05:06:36;19.10;99.90
6627;DHT22;3349;49.830;8.748;2023-07-29T05:09:13;19.10;99.90
6627;DHT22;3349;49.830;8.748;2023-07-29T05:11:40;19.20;99.90
6627;DHT22;3349;49.830;8.748;2023-07-29T05:14:06;19.20;99.90
6627;DHT22;3349;49.830;8.748;2023-07-29T05:16:35;19.20;99.90
6627;DHT22;3349;49.830;8.748;2023-07-29T05:19:01;19.30;99.90
6627;DHT22;3349;49.830;8.748;2023-07-29T05:21:28;19.30;99.90
6627;DHT22;3349;49.830;8.748;2023-07-29T05:23:56;19.40;99.90
6627;DHT22;3349;49.830;8.748;2023-07-29T05:26:23;19.40;99.90
6627;DHT22;3349;49.830;8.748;2023-07-29T05:28:49;19.50;99.90
6627;DHT22;3349;49.830;8.748;2023-07-29T05:31:16;19.60;99.90
6627;DHT22;3349;49.830;8.748;2023-07-29T05:33:43;19.70;99.90
6627;DHT22;3349;49.830;8.748;2023-07-29T05:36:09;19.70;99.90
6627;DHT22;3349;49.830;8.748;2023-07-29T05:38:36;19.80;99.90
6627;DHT22;3349;49.830;8.748;2023-07-29T05:41:04;19.80;99.90
6627;DHT22;3349;49.830;8.748;2023-07-29T05:43:31;19.90;99.90
6627;DHT22;3349;49.830;8.748;2023-07-29T05:45:57;19.90;99.90
6627;DHT22;3349;49.830;8.748;2023-07-29T05:48:24;19.90;99.90
6627;DHT22;3349;49.830;8.748;2023-07-29T05:50:51;20.00;99.90
6627;DHT22;3349;49.830;8.748;2023-07-29T05:53:18;20.00;99.90
6627;DHT22;3349;49.830;8.748;2023-07-29T05:55:44;20.00;99.90
6627;DHT22;3349;49.830;8.748;2023-07-29T05:58:12;20.10;99.90
6627;DHT22;3349;49.830;8.748;2023-07-29T06:00:39;20.10;99.90
6627;DHT22;3349;49.830;8.748;2023-07-29T06:03:06;20.20;99.90
6627;DHT22;3349;49.830;8.748;2023-07-29T06:05:33;20.30;99.90
6627;DHT22;3349;49.830;8.748;2023-07-29T06:07:59;20.30;99.90
6627;DHT22;3349;49.830;8.748;2023-07-29T06:10:26;20.30;99.90
6627;DHT22;3349;49.830;8.748;2023-07-29T06:12:53;20.30;99.90
6627;DHT22;3349;49.830;8.748;2023-07-29T06:15:21;20.30;99.90
6627;DHT22;3349;49.830;8.748;2023-07-29T06:17:48;20.30;99.90
6627;DHT22;3349;49.830;8.748;2023-07-29T06:20:15;20.20;99.90
6627;DHT22;3349;49.830;8.748;2023-07-29T06:22:42;20.10;99.90
6627;DHT22;3349;49.830;8.748;2023-07-29T06:25:09;19.90;99.90
6627;DHT22;3349;49.830;8.748;2023-07-29T06:27:35;19.80;99.90
6627;DHT22;3349;49.830;8.748;2023-07-29T06:30:02;19.70;99.90
6627;DHT22;3349;49.830;8.748;2023-07-29T06:32:31;19.60;99.90
6627;DHT22;3349;49.830;8.748;2023-07-29T06:34:57;19.50;99.90
6627;DHT22;3349;49.830;8.748;2023-07-29T06:37:24;19.40;99.90
6627;DHT22;3349;49.830;8.748;2023-07-29T06:39:51;19.40;99.90
6627;DHT22;3349;49.830;8.748;2023-07-29T06:42:17;19.30;99.90
6627;DHT22;3349;49.830;8.748;2023-07-29T06:44:44;19.30;99.90
6627;DHT22;3349;49.830;8.748;2023-07-29T06:47:11;19.20;99.90
6627;DHT22;3349;49.830;8.748;2023-07-29T06:49:39;19.10;99.90
6627;DHT22;3349;49.830;8.748;2023-07-29T06:52:06;19.00;99.90
6627;DHT22;3349;49.830;8.748;2023-07-29T06:54:33;18.90;99.90
6627;DHT22;3349;49.830;8.748;2023-07-29T06:57:00;18.90;99.90
6627;DHT22;3349;49.830;8.748;2023-07-29T06:59:26;19.00;99.90
6627;DHT22;3349;49.830;8.748;2023-07-29T07:01:53;18.80;99.90
6627;DHT22;3349;49.830;8.748;2023-07-29T07:04:20;18.80;99.90
6627;DHT22;3349;49.830;8.748;2023-07-29T07:06:48;18.80;99.90
6627;DHT22;3349;49.830;8.748;2023-07-29T07:09:14;18.80;99.90
6627;DHT22;3349;49.830;8.748;2023-07-29T07:11:41;18.80;99.90
6627;DHT22;3349;49.830;8.748;2023-07-29T07:14:08;18.70;99.90
6627;DHT22;3349;49.830;8.748;2023-07-29T07:16:35;18.70;99.90
6627;DHT22;3349;49.830;8.748;2023-07-29T07:19:02;18.70;99.90
6627;DHT22;3349;49.830;8.748;2023-07-29T07:21:29;18.60;99.90
6627;DHT22;3349;49.830;8.748;2023-07-29T07:23:57;18.60;99.90
6627;DHT22;3349;49.830;8.748;2023-07-29T07:26:24;18.60;99.90
6627;DHT22;3349;49.830;8.748;2023-07-29T07:28:51;18.60;99.90
6627;DHT22;3349;49.830;8.748;2023-07-29T07:31:17;18.50;99.90
6627;DHT22;3349;49.830;8.748;2023-07-29T07:33:44;18.50;99.90
6627;DHT22;3349;49.830;8.748;2023-07-29T07:36:11;18.40;99.90
6627;DHT22;3349;49.830;8.748;2023-07-29T07:38:38;18.40;99.90
6627;DHT22;3349;49.830;8.748;2023-07-29T07:41:06;18.40;99.90
6627;DHT22;3349;49.830;8.748;2023-07-29T07:43:33;18.30;99.90
6627;DHT22;3349;49.830;8.748;2023-07-29T07:46:01;18.30;99.90
6627;DHT22;3349;49.830;8.748;2023-07-29T07:48:28;18.20;99.90
6627;DHT22;3349;49.830;8.748;2023-07-29T07:50:54;18.10;99.90
6627;DHT22;3349;49.830;8.748;2023-07-29T07:53:21;18.00;99.90
6627;DHT22;3349;49.830;8.748;2023-07-29T07:55:48;17.90;99.90
6627;DHT22;3349;49.830;8.748;2023-07-29T07:58:16;17.90;99.90
6627;DHT22;3349;49.830;8.748;2023-07-29T08:00:43;17.90;99.90
6627;DHT22;3349;49.830;8.748;2023-07-29T08:03:10;17.90;99.90
6627;DHT22;3349;49.830;8.748;2023-07-29T08:05:36;17.80;99.90
6627;DHT22;3349;49.830;8.748;2023-07-29T08:08:03;17.80;99.90
6627;DHT22;3349;49.830;8.748;2023-07-29T08:10:30;17.70;99.90
6627;DHT22;3349;49.830;8.748;2023-07-29T08:12:56;17.70;99.90
6627;DHT22;3349;49.830;8.748;2023-07-29T08:15:24;17.70;99.90
6627;DHT22;3349;49.830;8.748;2023-07-29T08:17:51;17.60;99.90
6627;DHT22;3349;49.830;8.748;2023-07-29T08:20:18;17.70;99.90
6627;DHT22;3349;49.830;8.748;2023-07-29T08:22:44;17.70;99.90
6627;DHT22;3349;49.830;8.748;2023-07-29T08:25:11;17.70;99.90
6627;DHT22;3349;49.830;8.748;2023-07-29T08:27:38;17.80;99.90
6627;DHT22;3349;49.830;8.748;2023-07-29T08:30:05;17.90;99.90
6627;DHT22;3349;49.830;8.748;2023-07-29T08:32:34;17.90;99.90
6627;DHT22;3349;49.830;8.748;2023-07-29T08:35:01;18.00;99.90
6627;DHT22;3349;49.830;8.748;2023-07-29T08:37:27;18.10;99.90
6627;DHT22;3349;49.830;8.748;2023-07-29T08:39:55;18.30;99.90
6627;DHT22;3349;49.830;8.748;2023-07-29T08:42:23;18.60;99.90
6627;DHT22;3349;49.830;8.748;2023-07-29T08:44:51;19.20;99.90
6627;DHT22;3349;49.830;8.748;2023-07-29T08:47:20;19.60;99.90
6627;DHT22;3349;49.830;8.748;2023-07-29T08:49:50;19.60;99.90
6627;DHT22;3349;49.830;8.748;2023-07-29T08:52:18;19.60;99.90
6627;DHT22;3349;49.830;8.748;2023-07-29T08:54:46;19.40;99.90
6627;DHT22;3349;49.830;8.748;2023-07-29T08:57:13;19.30;99.90
6627;DHT22;3349;49.830;8.748;2023-07-29T08:59:41;19.20;99.90
6627;DHT22;3349;49.830;8.748;2023-07-29T09:02:08;19.30;99.90
6627;DHT22;3349;49.830;8.748;2023-07-29T09:04:34;20.10;99.90
6627;DHT22;3349;49.830;8.748;2023-07-29T09:07:03;20.80;99.90
6627;DHT22;3349;49.830;8.748;2023-07-29T09:09:31;21.40;99.90
6627;DHT22;3349;49.830;8.748;2023-07-29T09:11:58;21.90;99.90
6627;DHT22;3349;49.830;8.748;2023-07-29T09:14:25;21.70;99.90
6627;DHT22;3349;49.830;8.748;2023-07-29T09:16:53;21.30;99.90
6627;DHT22;3349;49.830;8.748;2023-07-29T09:19:20;21.00;99.90
6627;DHT22;3349;49.830;8.748;2023-07-29T09:21:47;20.90;99.90
6627;DHT22;3349;49.830;8.748;2023-07-29T09:24:17;21.00;99.90
6627;DHT22;3349;49.830;8.748;2023-07-29T09:26:49;21.00;99.90
6627;DHT22;3349;49.830;8.748;2023-07-29T09:29:16;21.10;99.90
6627;DHT22;3349;49.830;8.748;2023-07-29T09:31:48;21.20;99.90
6627;DHT22;3349;49.830;8.748;2023-07-29T09:34:15;21.90;99.90
6627;DHT22;3349;49.830;8.748;2023-07-29T09:36:43;22.60;99.90
6627;DHT22;3349;49.830;8.748;2023-07-29T09:39:12;24.00;99.90
6627;DHT22;3349;49.830;8.748;2023-07-29T09:41:40;24.60;90.60
6627;DHT22;3349;49.830;8.748;2023-07-29T09:44:07;24.30;83.50
6627;DHT22;3349;49.830;8.748;2023-07-29T09:46:36;24.50;84.20
6627;DHT22;3349;49.830;8.748;2023-07-29T09:49:03;24.60;78.80
6627;DHT22;3349;49.830;8.748;2023-07-29T09:51:30;24.50;76.00
6627;DHT22;3349;49.830;8.748;2023-07-29T09:53:56;25.30;71.10
6627;DHT22;3349;49.830;8.748;2023-07-29T09:56:26;25.40;71.10
6627;DHT22;3349;49.830;8.748;2023-07-29T09:58:55;25.50;69.30
6627;DHT22;3349;49.830;8.748;2023-07-29T10:01:23;26.80;63.70
6627;DHT22;3349;49.830;8.748;2023-07-29T10:03:49;28.30;58.10
6627;DHT22;3349;49.830;8.748;2023-07-29T10:06:17;28.70;56.00
6627;DHT22;3349;49.830;8.748;2023-07-29T10:08:45;29.50;52.70
6627;DHT22;3349;49.830;8.748;2023-07-29T10:11:12;29.80;50.50
6627;DHT22;3349;49.830;8.748;2023-07-29T10:13:38;30.10;51.90
6627;DHT22;3349;49.830;8.748;2023-07-29T10:16:07;30.90;47.90
6627;DHT22;3349;49.830;8.748;2023-07-29T10:18:34;31.70;48.60
6627;DHT22;3349;49.830;8.748;2023-07-29T10:21:01;31.90;45.90
6627;DHT22;3349;49.830;8.748;2023-07-29T10:23:32;32.40;44.40
6627;DHT22;3349;49.830;8.748;2023-07-29T10:26:03;31.90;44.40
6627;DHT22;3349;49.830;8.748;2023-07-29T10:28:30;32.30;43.90
6627;DHT22;3349;49.830;8.748;2023-07-29T10:30:58;32.20;42.80
6627;DHT22;3349;49.830;8.748;2023-07-29T10:33:26;31.90;44.30
6627;DHT22;3349;49.830;8.748;2023-07-29T10:35:54;32.70;43.60
6627;DHT22;3349;49.830;8.748;2023-07-29T10:38:22;33.40;41.00
6627;DHT22;3349;49.830;8.748;2023-07-29T10:40:51;33.90;39.80
6627;DHT22;3349;49.830;8.748;2023-07-29T10:43:19;33.20;39.60
6627;DHT22;3349;49.830;8.748;2023-07-29T10:45:50;33.30;40.20
6627;DHT22;3349;49.830;8.748;2023-07-29T10:48:43;33.30;40.40
6627;DHT22;3349;49.830;8.748;2023-07-29T10:51:26;33.60;41.10
6627;DHT22;3349;49.830;8.748;2023-07-29T10:53:55;32.80;41.30
6627;DHT22;3349;49.830;8.748;2023-07-29T10:56:30;33.40;41.90
6627;DHT22;3349;49.830;8.748;2023-07-29T10:58:58;33.20;40.90
6627;DHT22;3349;49.830;8.748;2023-07-29T11:01:29;32.60;41.70
6627;DHT22;3349;49.830;8.748;2023-07-29T11:04:27;33.30;40.10
6627;DHT22;3349;49.830;8.748;2023-07-29T11:07:20;34.20;39.30
6627;DHT22;3349;49.830;8.748;2023-07-29T11:10:02;34.30;37.10
6627;DHT22;3349;49.830;8.748;2023-07-29T11:12:44;33.20;38.90
6627;DHT22;3349;49.830;8.748;2023-07-29T11:15:18;33.80;39.50
6627;DHT22;3349;49.830;8.748;2023-07-29T11:17:46;33.70;37.90
6627;DHT22;3349;49.830;8.748;2023-07-29T11:20:15;33.70;37.80
6627;DHT22;3349;49.830;8.748;2023-07-29T11:22:42;34.10;37.00
6627;DHT22;3349;49.830;8.748;2023-07-29T11:25:10;34.10;37.40
6627;DHT22;3349;49.830;8.748;2023-07-29T11:27:37;34.10;36.20
6627;DHT22;3349;49.830;8.748;2023-07-29T11:30:05;34.20;35.00
6627;DHT22;3349;49.830;8.748;2023-07-29T11:32:34;33.80;35.00
6627;DHT22;3349;49.830;8.748;2023-07-29T11:35:02;32.70;37.90
6627;DHT22;3349;49.830;8.748;2023-07-29T11:37:32;31.50;40.00
6627;DHT22;3349;49.830;8.748;2023-07-29T11:39:59;31.00;42.10
6627;DHT22;3349;49.830;8.748;2023-07-29T11:42:26;31.20;42.80
6627;DHT22;3349;49.830;8.748;2023-07-29T11:44:53;32.40;40.40
6627;DHT22;3349;49.830;8.748;2023-07-29T11:47:20;33.10;38.60
6627;DHT22;3349;49.830;8.748;2023-07-29T11:49:47;33.50;37.30
6627;DHT22;3349;49.830;8.748;2023-07-29T11:52:14;33.50;36.60
6627;DHT22;3349;49.830;8.748;2023-07-29T11:54:47;34.00;36.90
6627;DHT22;3349;49.830;8.748;2023-07-29T11:57:14;34.40;35.60
6627;DHT22;3349;49.830;8.748;2023-07-29T11:59:42;34.50;34.70
6627;DHT22;3349;49.830;8.748;2023-07-29T12:02:11;33.30;35.90
6627;DHT22;3349;49.830;8.748;2023-07-29T12:04:39;33.10;37.20
6627;DHT22;3349;49.830;8.748;2023-07-29T12:07:06;33.20;38.40
6627;DHT22;3349;49.830;8.748;2023-07-29T12:09:33;33.90;37.00
6627;DHT22;3349;49.830;8.748;2023-07-29T12:12:01;34.70;36.40
6627;DHT22;3349;49.830;8.748;2023-07-29T12:14:29;35.20;33.60
6627;DHT22;3349;49.830;8.748;2023-07-29T12:16:55;35.00;33.80
6627;DHT22;3349;49.830;8.748;2023-07-29T12:19:22;35.10;33.10
6627;DHT22;3349;49.830;8.748;2023-07-29T12:21:50;34.80;31.70
6627;DHT22;3349;49.830;8.748;2023-07-29T12:24:17;34.90;30.40
6627;DHT22;3349;49.830;8.748;2023-07-29T12:26:44;34.60;31.10
6627;DHT22;3349;49.830;8.748;2023-07-29T12:29:13;34.40;31.80
6627;DHT22;3349;49.830;8.748;2023-07-29T12:31:40;34.20;30.80
6627;DHT22;3349;49.830;8.748;2023-07-29T12:34:07;34.40;31.00
6627;DHT22;3349;49.830;8.748;2023-07-29T12:36:44;34.70;28.80
6627;DHT22;3349;49.830;8.748;2023-07-29T12:39:18;35.50;29.10
6627;DHT22;3349;49.830;8.748;2023-07-29T12:41:46;35.00;28.90
6627;DHT22;3349;49.830;8.748;2023-07-29T12:44:14;35.10;27.90
6627;DHT22;3349;49.830;8.748;2023-07-29T12:46:41;34.80;28.70
6627;DHT22;3349;49.830;8.748;2023-07-29T12:49:08;35.10;28.60
6627;DHT22;3349;49.830;8.748;2023-07-29T12:51:34;35.20;27.60
6627;DHT22;3349;49.830;8.748;2023-07-29T12:54:01;34.90;27.20
6627;DHT22;3349;49.830;8.748;2023-07-29T12:56:29;34.40;27.40
6627;DHT22;3349;49.830;8.748;2023-07-29T12:58:56;34.70;28.40
6627;DHT22;3349;49.830;8.748;2023-07-29T13:01:24;34.50;27.90
6627;DHT22;3349;49.830;8.748;2023-07-29T13:03:51;33.80;28.30
6627;DHT22;3349;49.830;8.748;2023-07-29T13:06:18;33.10;29.60
6627;DHT22;3349;49.830;8.748;2023-07-29T13:08:45;32.80;28.70
6627;DHT22;3349;49.830;8.748;2023-07-29T13:11:12;32.50;30.00
6627;DHT22;3349;49.830;8.748;2023-07-29T13:13:39;32.50;29.50
6627;DHT22;3349;49.830;8.748;2023-07-29T13:16:05;32.50;29.70
6627;DHT22;3349;49.830;8.748;2023-07-29T13:18:34;33.00;29.90
6627;DHT22;3349;49.830;8.748;2023-07-29T13:21:00;32.80;27.40
6627;DHT22;3349;49.830;8.748;2023-07-29T13:23:27;32.20;28.50
6627;DHT22;3349;49.830;8.748;2023-07-29T13:25:55;31.70;29.00
6627;DHT22;3349;49.830;8.748;2023-07-29T13:28:21;31.20;30.20
6627;DHT22;3349;49.830;8.748;2023-07-29T13:30:48;30.90;30.80
6627;DHT22;3349;49.830;8.748;2023-07-29T13:33:15;30.70;31.30
6627;DHT22;3349;49.830;8.748;2023-07-29T13:35:43;30.00;31.70
6627;DHT22;3349;49.830;8.748;2023-07-29T13:38:10;29.40;31.90
6627;DHT22;3349;49.830;8.748;2023-07-29T13:40:37;29.00;32.00
6627;DHT22;3349;49.830;8.748;2023-07-29T13:43:04;28.70;33.20
6627;DHT22;3349;49.830;8.748;2023-07-29T13:45:30;28.30;33.80
6627;DHT22;3349;49.830;8.748;2023-07-29T13:47:57;28.20;34.40
6627;DHT22;3349;49.830;8.748;2023-07-29T13:50:24;28.10;35.70
6627;DHT22;3349;49.830;8.748;2023-07-29T13:52:52;27.90;36.20
6627;DHT22;3349;49.830;8.748;2023-07-29T13:55:19;27.90;36.50
6627;DHT22;3349;49.830;8.748;2023-07-29T13:57:45;27.80;36.50
6627;DHT22;3349;49.830;8.748;2023-07-29T14:00:13;27.70;37.30
6627;DHT22;3349;49.830;8.748;2023-07-29T14:02:40;27.60;37.30
6627;DHT22;3349;49.830;8.748;2023-07-29T14:05:08;27.50;37.20
6627;DHT22;3349;49.830;8.748;2023-07-29T14:07:34;27.40;37.10
6627;DHT22;3349;49.830;8.748;2023-07-29T14:10:03;27.20;37.00
6627;DHT22;3349;49.830;8.748;2023-07-29T14:12:30;27.10;37.70
6627;DHT22;3349;49.830;8.748;2023-07-29T14:14:56;27.10;38.60
6627;DHT22;3349;49.830;8.748;2023-07-29T14:17:23;27.00;38.70
6627;DHT22;3349;49.830;8.748;2023-07-29T14:19:50;27.00;39.00
6627;DHT22;3349;49.830;8.748;2023-07-29T14:22:16;26.90;39.20
6627;DHT22;3349;49.830;8.748;2023-07-29T14:24:43;26.90;39.30
6627;DHT22;3349;49.830;8.748;2023-07-29T14:27:11;26.70;39.00
6627;DHT22;3349;49.830;8.748;2023-07-29T14:29:39;26.60;38.90
6627;DHT22;3349;49.830;8.748;2023-07-29T14:32:06;26.50;39.40
6627;DHT22;3349;49.830;8.748;2023-07-29T14:34:33;26.50;40.00
6627;DHT22;3349;49.830;8.748;2023-07-29T14:37:00;26.20;40.50
6627;DHT22;3349;49.830;8.748;2023-07-29T14:39:26;26.10;40.80
6627;DHT22;3349;49.830;8.748;2023-07-29T14:41:53;26.10;41.50
6627;DHT22;3349;49.830;8.748;2023-07-29T14:44:21;26.20;41.50
6627;DHT22;3349;49.830;8.748;2023-07-29T14:46:48;26.10;42.00
6627;DHT22;3349;49.830;8.748;2023-07-29T14:49:14;26.10;42.30
6627;DHT22;3349;49.830;8.748;2023-07-29T14:51:41;26.40;41.90
6627;DHT22;3349;49.830;8.748;2023-07-29T14:54:08;26.70;41.30
6627;DHT22;3349;49.830;8.748;2023-07-29T14:56:34;27.60;39.90
6627;DHT22;3349;49.830;8.748;2023-07-29T14:59:01;28.20;37.60
6627;DHT22;3349;49.830;8.748;2023-07-29T15:01:29;28.50;37.10
6627;DHT22;3349;49.830;8.748;2023-07-29T15:03:56;28.90;36.50
6627;DHT22;3349;49.830;8.748;2023-07-29T15:06:22;28.40;36.80
6627;DHT22;3349;49.830;8.748;2023-07-29T15:08:49;28.10;37.60
6627;DHT22;3349;49.830;8.748;2023-07-29T15:11:16;27.40;38.00
6627;DHT22;3349;49.830;8.748;2023-07-29T15:13:42;27.10;39.60
6627;DHT22;3349;49.830;8.748;2023-07-29T15:16:09;27.20;40.20
6627;DHT22;3349;49.830;8.748;2023-07-29T15:18:37;27.40;39.80
6627;DHT22;3349;49.830;8.748;2023-07-29T15:21:04;27.70;40.00
6627;DHT22;3349;49.830;8.748;2023-07-29T15:23:30;28.40;39.40
6627;DHT22;3349;49.830;8.748;2023-07-29T15:25:57;28.90;38.10
6627;DHT22;3349;49.830;8.748;2023-07-29T15:28:24;29.30;36.80
6627;DHT22;3349;49.830;8.748;2023-07-29T15:30:52;29.00;36.70
6627;DHT22;3349;49.830;8.748;2023-07-29T15:33:18;28.70;38.00
6627;DHT22;3349;49.830;8.748;2023-07-29T15:35:47;28.90;38.10
6627;DHT22;3349;49.830;8.748;2023-07-29T15:38:14;28.90;37.10
6627;DHT22;3349;49.830;8.748;2023-07-29T15:40:41;29.00;38.10
6627;DHT22;3349;49.830;8.748;2023-07-29T15:43:07;29.20;37.30
6627;DHT22;3349;49.830;8.748;2023-07-29T15:45:34;29.40;36.30
6627;DHT22;3349;49.830;8.748;2023-07-29T15:48:01;29.60;36.50
6627;DHT22;3349;49.830;8.748;2023-07-29T15:50:28;29.80;36.30
6627;DHT22;3349;49.830;8.748;2023-07-29T15:52:56;29.70;36.00
6627;DHT22;3349;49.830;8.748;2023-07-29T15:55:23;29.70;36.20
6627;DHT22;3349;49.830;8.748;2023-07-29T15:57:49;29.70;36.10
6627;DHT22;3349;49.830;8.748;2023-07-29T16:00:16;29.70;36.00
6627;DHT22;3349;49.830;8.748;2023-07-29T16:02:43;29.50;35.50
6627;DHT22;3349;49.830;8.748;2023-07-29T16:05:10;29.20;36.00